Hamilton, KS (66853)

1:24 AM CDT on July 26, 2016 (GMT -0500)
Greenwood Heights | | Change Station

Elev 1207 ft 38.13 °N, 96.14 °W | Updated 11 seconds ago

Mostly Cloudy
Mostly Cloudy
73.9 °F
Feels Like 70 °F
N
0.0
Wind Variable Wind from South
Gusts 0.0 mph

Today
High -- | Low -- °F
--% Chance of Precip.
Yesterday
High -- | Low -- °F
Precip. -- in
Pressure 30.04 in
Visibility 10.0 miles
Clouds Mostly Cloudy 12000 ft
Heat Index 70 °F
Dew Point 73 °F
Humidity 97%
Rainfall 0.00 in
Snow Depth Not available.
6:23 AM 8:38 PM
Waning Gibbous, 58% visible
METAR KEMP 260553Z AUTO 09003KT 10SM BKN120 23/22 A3006 RMK AO2 SLP171 T02330222 10267 20233 402780206 53002
Pressure 30.04 in
Visibility 10.0 miles
Clouds Mostly Cloudy 12000 ft
Heat Index 70 °F
Dew Point 73 °F
Humidity 97%
Rainfall 0.00 in
Snow Depth Not available.
6:23 AM 8:38 PM
Waning Gibbous, 58% visible
METAR KEMP 260553Z AUTO 09003KT 10SM BKN120 23/22 A3006 RMK AO2 SLP171 T02330222 10267 20233 402780206 53002

10-Day Weather Forecast

Almanac

Astronomy

Jul. 26, 2016 Rise Set
Actual Time
Civil Twilight
Nautical Twilight
Astronomical Twilight
Moon
Length of Visible Light
Length of Day
Tomorrow will be .
, % of the Moon is Illuminated

Today's Extremes

State Highs State Lows

Community

WunderPhotos

Upload Photos

1,927,550 photos uploaded!

WunderBlog® & News

Nearby

Air Quality

  Air Quality AQ Index Pollutant
Not available.

Snow Depth

Station Depth Elevation

Earthquake Activity

City Distance Mag. Time & Date
Minimum magnitude displayed is 2.5.

Coastal Water Temperatures

Place Temperature

Stations

Nearby Weather Stations

Station Location Temp. Windchill Dew Point Humidity Wind Precip. Elev Updated Type
                   

Watches & Warnings

There are currently no watches in effect.